Rome, Wisconsin
Current Conditions -  °F | °C
As of 3:54 AM on Monday 22 Dec 2014 (Local Time) from KISW Reporting Station
Haze Haze  
Wind Chill: 26°   Ceiling: 1200
Heat Index: 34°   Visibility: 6mi
Dew Point: 29°   Wind: 10mph
Humidity: 82%   Direction: 150°SSE
Pressure: 29.86"   Gusts: NA
Location:  44.252°N, 89.9853°W
Report Text: KISW 220954Z AUTO 15009KT 6SM HZ BKN012 OVC019 01/M02 A2986 RMK AO2 SNB02E12B36E45 SLP122 P0000 T00111017
Loading
Personal Weather Stations






























Interactive Weather Map New forecast layout! Learn more

10-Day Weather Forecast

Advertisements
Track Severe Weather on mobile